Accueil
METAR-TAF:

METAR-TAF

Aéroports :

Aéroport de Gênes-Christophe Colomb

Gênes, Italie

latitude: 44-25N, longitude: 008-51E, altitude: 2 m

Observation

Le bulletin a été fait il y a 23 minutes, à 09:50 UTC
Vent 9 kt de ouest/sud-ouest
Température 25°C
Humidité 61%
Pression 1014 hPa
Visibilité 10 km ou plus
Nuages épars à une hauteur de 4000 ft

METAR: LIMJ 140950Z 24009KT 9999 SCT040 25/17 Q1014

Heure: 12:13 (10:13 UTC)

Prévision

Le bulletin a été fait il y a 5 heures et 13 minutes, à 05:00 UTC
Prévision valable du 14 à 06 UTC au 15 à 06 UTC
Vent 6 kt de nord
Visibilité 10 km ou plus
Nuages épars à une hauteur de 5000 ft

TAF: LIMJ 140500Z 1406/1506 36006KT 9999 SCT050

Observations et prévisions météorologiques de plus de 4000 aéroports (messages METAR et TAF).

Les stations disponibles sont représentées par des disques jaunes et rouges sur la carte.

Passer la souris dessus pour voir le nom de la station.

Cliquer dessus pour voir les observations et prévisions météorologiques.

Pour changer de carte: cliquez sur les boutons verts avec une croix noire pour zoomer, sur le bouton vert avec un tiret pour effectuer un zoom arrière, ou sur les flèches vertes pour les cartes adjacentes.


METAR-TAF: